createdAt,value
2018-03-29T00:00:17.930Z,2.00
2018-03-29T00:02:45.510Z,2.70
2018-03-29T00:05:13.123Z,3.00
2018-03-29T00:07:40.711Z,2.10
2018-03-29T00:10:08.456Z,1.97
2018-03-29T00:12:36.147Z,2.20
2018-03-29T00:15:03.733Z,2.40
2018-03-29T00:17:31.348Z,2.07
2018-03-29T00:19:58.936Z,2.30
2018-03-29T00:22:26.548Z,2.33
2018-03-29T00:24:54.148Z,2.37
2018-03-29T00:27:22.014Z,1.77
2018-03-29T00:29:49.598Z,2.07
2018-03-29T00:32:17.187Z,2.20
2018-03-29T00:34:44.787Z,2.23
2018-03-29T00:37:12.445Z,2.10
2018-03-29T00:39:40.052Z,1.50
2018-03-29T00:42:07.644Z,1.90
2018-03-29T00:44:35.279Z,2.13
2018-03-29T00:47:02.884Z,1.67
2018-03-29T00:49:30.460Z,1.80
2018-03-29T00:51:58.068Z,1.80
2018-03-29T00:54:25.659Z,2.10
2018-03-29T00:56:53.448Z,2.13
2018-03-29T00:59:21.028Z,1.57
2018-03-29T01:01:48.607Z,2.37
2018-03-29T01:04:16.207Z,2.10
2018-03-29T01:06:43.799Z,2.03
2018-03-29T01:09:11.552Z,2.40
2018-03-29T01:11:39.142Z,2.23
2018-03-29T01:14:06.741Z,2.60
2018-03-29T01:16:34.379Z,2.00
2018-03-29T01:19:01.987Z,2.93
2018-03-29T01:21:29.721Z,2.77
2018-03-29T01:23:57.331Z,3.17
2018-03-29T01:26:24.923Z,2.17
2018-03-29T01:28:52.521Z,2.50
2018-03-29T01:31:20.100Z,2.40
2018-03-29T01:33:47.879Z,3.17
2018-03-29T01:36:15.461Z,2.73
2018-03-29T01:38:43.054Z,2.47
2018-03-29T01:41:10.662Z,2.37
2018-03-29T01:43:38.257Z,2.53
2018-03-29T01:46:05.994Z,3.13
2018-03-29T01:48:33.592Z,2.37
2018-03-29T01:51:01.177Z,2.93
2018-03-29T01:53:28.785Z,3.03
2018-03-29T01:55:56.363Z,2.93
2018-03-29T01:58:23.971Z,1.80
2018-03-29T02:00:51.553Z,2.50
2018-03-29T02:03:19.133Z,2.83
2018-03-29T02:05:46.735Z,2.60
2018-03-29T02:08:14.335Z,3.37
2018-03-29T02:10:41.968Z,2.20
2018-03-29T02:13:09.557Z,1.80
2018-03-29T02:15:37.151Z,2.20
2018-03-29T02:18:04.770Z,1.67
2018-03-29T02:20:32.357Z,1.73
2018-03-29T02:22:59.986Z,1.97
2018-03-29T02:25:27.573Z,2.10
2018-03-29T02:27:55.156Z,2.17
2018-03-29T02:30:22.769Z,1.90
2018-03-29T02:32:50.407Z,2.40
2018-03-29T02:35:18.018Z,2.00
2018-03-29T02:37:45.601Z,2.00
2018-03-29T02:40:13.200Z,2.50
2018-03-29T02:42:40.804Z,2.50
2018-03-29T02:45:08.385Z,2.53
2018-03-29T02:47:36.104Z,3.67
2018-03-29T02:50:03.696Z,3.27
2018-03-29T02:52:31.282Z,2.90
2018-03-29T02:54:58.886Z,2.90
2018-03-29T02:57:26.467Z,2.90
2018-03-29T02:59:54.073Z,3.60
2018-03-29T03:02:21.665Z,3.07
2018-03-29T03:04:49.304Z,3.37
2018-03-29T03:07:16.905Z,3.40
2018-03-29T03:09:44.492Z,3.33
2018-03-29T03:12:12.097Z,4.00
2018-03-29T03:14:39.694Z,3.30
2018-03-29T03:17:07.296Z,3.57
2018-03-29T03:19:34.884Z,3.50
2018-03-29T03:22:02.508Z,4.47
2018-03-29T03:24:30.100Z,3.87
2018-03-29T03:26:57.688Z,3.93
2018-03-29T03:29:25.298Z,3.40
2018-03-29T03:31:52.887Z,3.10
2018-03-29T03:34:20.492Z,3.63
2018-03-29T03:36:48.076Z,4.10
2018-03-29T03:39:15.694Z,4.20
2018-03-29T03:41:43.273Z,3.97
2018-03-29T03:44:10.863Z,4.10
2018-03-29T03:46:38.476Z,3.30
2018-03-29T03:49:06.059Z,3.40
2018-03-29T03:51:34.050Z,4.90
2018-03-29T03:54:01.640Z,3.50
2018-03-29T03:56:29.634Z,4.00
2018-03-29T03:58:57.223Z,3.20
2018-03-29T04:01:24.807Z,2.97
2018-03-29T04:03:52.420Z,2.80
2018-03-29T04:06:20.083Z,2.93
2018-03-29T04:08:47.732Z,3.83
2018-03-29T04:11:15.324Z,3.97
2018-03-29T04:13:43.068Z,4.73
2018-03-29T04:16:10.728Z,3.95
2018-03-29T04:18:38.310Z,4.47
2018-03-29T04:21:05.993Z,4.05
2018-03-29T04:23:33.621Z,4.27
2018-03-29T04:26:01.233Z,4.33
2018-03-29T04:28:28.815Z,4.30
2018-03-29T04:30:56.448Z,3.97
2018-03-29T04:33:24.031Z,3.60
2018-03-29T04:35:51.611Z,4.10
2018-03-29T04:38:19.288Z,4.13
2018-03-29T04:40:46.872Z,3.80
2018-03-29T04:43:14.476Z,3.30
2018-03-29T04:45:42.057Z,3.20
2018-03-29T04:48:09.698Z,3.03
2018-03-29T04:50:37.280Z,4.07
2018-03-29T04:53:04.864Z,3.07
2018-03-29T04:55:32.510Z,4.37
2018-03-29T04:58:00.068Z,3.20
2018-03-29T05:00:27.695Z,3.27
2018-03-29T05:02:55.285Z,2.80
2018-03-29T05:05:23.271Z,3.53
2018-03-29T05:07:50.860Z,4.17
2018-03-29T05:10:18.439Z,2.80
2018-03-29T05:12:46.055Z,3.00
2018-03-29T05:15:13.649Z,2.93
2018-03-29T05:17:41.262Z,3.83
2018-03-29T05:20:08.842Z,3.27
2018-03-29T05:22:36.599Z,2.73
2018-03-29T05:25:04.256Z,2.67
2018-03-29T05:27:32.678Z,2.90
2018-03-29T05:30:00.279Z,2.20
2018-03-29T05:32:27.996Z,2.70
2018-03-29T05:34:55.615Z,2.97
2018-03-29T05:37:23.209Z,3.73
2018-03-29T05:39:50.828Z,2.67
2018-03-29T05:42:18.418Z,2.83
2018-03-29T05:44:45.996Z,3.40
2018-03-29T05:47:13.599Z,3.13
2018-03-29T05:49:41.190Z,3.03
2018-03-29T05:52:08.800Z,3.37
2018-03-29T05:54:36.388Z,2.90
2018-03-29T05:57:04.023Z,3.77
2018-03-29T05:59:31.604Z,3.10
2018-03-29T06:01:59.286Z,3.33
2018-03-29T06:04:26.898Z,2.90
2018-03-29T06:06:54.484Z,4.43
2018-03-29T06:09:22.086Z,2.97
2018-03-29T06:11:49.673Z,2.70
2018-03-29T06:14:17.296Z,4.07
2018-03-29T06:16:46.600Z,3.30
2018-03-29T06:19:14.186Z,3.10
2018-03-29T06:21:41.803Z,3.50
2018-03-29T06:24:09.399Z,3.43
2018-03-29T06:26:37.008Z,3.00
2018-03-29T06:29:04.602Z,3.60
2018-03-29T06:31:32.324Z,4.17
2018-03-29T06:34:00.046Z,4.20
2018-03-29T06:36:27.654Z,4.20
2018-03-29T06:38:55.275Z,3.40
2018-03-29T06:41:23.595Z,3.27
2018-03-29T06:43:51.196Z,3.50
2018-03-29T06:46:18.777Z,3.60
2018-03-29T06:48:46.403Z,3.87
2018-03-29T06:51:13.990Z,4.67
2018-03-29T06:53:41.571Z,3.93
2018-03-29T06:56:09.189Z,4.37
2018-03-29T06:58:36.773Z,3.87
2018-03-29T07:01:04.437Z,3.97
2018-03-29T07:03:32.028Z,4.63
2018-03-29T07:05:59.664Z,2.90
2018-03-29T07:08:27.255Z,3.77
2018-03-29T07:10:54.913Z,4.40
2018-03-29T07:13:22.523Z,4.33
2018-03-29T07:15:50.124Z,5.57
2018-03-29T07:18:17.740Z,4.80
2018-03-29T07:20:45.328Z,3.53
2018-03-29T07:23:13.338Z,5.10
2018-03-29T07:25:40.920Z,5.60
2018-03-29T07:28:08.509Z,4.17
2018-03-29T07:30:36.126Z,6.40
2018-03-29T07:33:03.718Z,5.40
2018-03-29T07:35:31.346Z,5.33
2018-03-29T07:37:58.933Z,4.40
2018-03-29T07:40:26.550Z,5.57
2018-03-29T07:42:54.178Z,4.97
2018-03-29T07:45:21.761Z,5.50
2018-03-29T07:47:49.397Z,5.80
2018-03-29T07:50:16.999Z,4.87
2018-03-29T07:52:45.032Z,4.87
2018-03-29T07:55:12.632Z,3.93
2018-03-29T07:57:40.231Z,4.60
2018-03-29T08:00:07.848Z,5.30
2018-03-29T08:02:35.433Z,5.90
2018-03-29T08:05:03.058Z,5.13
2018-03-29T08:07:30.685Z,5.57
2018-03-29T08:09:58.327Z,5.00
2018-03-29T08:12:25.989Z,4.60
2018-03-29T08:14:53.734Z,6.37
2018-03-29T08:17:21.365Z,4.57
2018-03-29T08:19:48.953Z,4.87
2018-03-29T08:22:16.592Z,5.23
2018-03-29T08:24:44.179Z,5.77
2018-03-29T08:27:12.209Z,5.00
2018-03-29T08:29:39.799Z,5.67
2018-03-29T08:32:07.392Z,5.00
2018-03-29T08:34:34.997Z,5.10
2018-03-29T08:37:02.770Z,4.73
2018-03-29T08:39:30.733Z,5.30
2018-03-29T08:41:59.356Z,6.33
2018-03-29T08:44:27.145Z,6.03
2018-03-29T08:46:54.765Z,6.77
2018-03-29T08:49:22.362Z,6.20
2018-03-29T08:51:50.059Z,6.27
2018-03-29T08:54:24.744Z,6.90
2018-03-29T08:56:52.367Z,7.33
2018-03-29T08:59:19.961Z,6.37
2018-03-29T09:01:47.585Z,6.67
2018-03-29T09:04:15.187Z,6.23
2018-03-29T09:06:43.016Z,6.37
2018-03-29T09:09:10.923Z,7.27
2018-03-29T09:11:38.515Z,5.87
2018-03-29T09:14:06.143Z,6.97
2018-03-29T09:16:35.623Z,7.03
2018-03-29T09:19:03.486Z,5.63
2018-03-29T09:21:31.049Z,5.30
2018-03-29T09:23:58.643Z,7.20
2018-03-29T09:26:26.257Z,6.13
2018-03-29T09:28:54.377Z,5.90
2018-03-29T09:31:22.007Z,6.20
2018-03-29T09:33:49.591Z,5.07
2018-03-29T09:36:17.392Z,6.23
2018-03-29T09:38:45.394Z,6.03
2018-03-29T09:41:13.196Z,5.30
2018-03-29T09:43:41.004Z,6.87
2018-03-29T09:46:08.591Z,6.73
2018-03-29T09:48:36.203Z,6.17
2018-03-29T09:51:03.785Z,6.33
2018-03-29T09:53:31.398Z,6.03
2018-03-29T09:55:59.019Z,5.40
2018-03-29T09:58:26.629Z,5.40
2018-03-29T10:00:54.274Z,5.70
2018-03-29T10:03:22.563Z,5.03
2018-03-29T10:05:50.372Z,4.73
2018-03-29T10:08:17.970Z,5.40
2018-03-29T10:10:45.588Z,5.90
2018-03-29T10:13:13.204Z,4.70
2018-03-29T10:15:40.821Z,6.07
2018-03-29T10:18:08.482Z,5.17
2018-03-29T10:20:36.076Z,4.87
2018-03-29T10:23:03.813Z,5.17
2018-03-29T10:25:31.395Z,3.63
2018-03-29T10:27:59.266Z,4.10
2018-03-29T10:30:26.877Z,5.20
2018-03-29T10:32:54.473Z,4.20
2018-03-29T10:35:22.088Z,4.17
2018-03-29T10:37:49.675Z,4.90
2018-03-29T10:40:17.444Z,5.93
2018-03-29T10:42:45.044Z,5.30
2018-03-29T10:45:13.024Z,4.27
2018-03-29T10:47:40.689Z,4.47
2018-03-29T10:50:08.275Z,4.70
2018-03-29T10:52:35.897Z,4.60
2018-03-29T10:55:03.496Z,4.67
2018-03-29T10:57:31.138Z,4.67
2018-03-29T10:59:58.735Z,4.53
2018-03-29T11:02:26.332Z,4.63
2018-03-29T11:04:53.957Z,4.83
2018-03-29T11:07:21.563Z,5.30
2018-03-29T11:09:49.188Z,3.80
2018-03-29T11:12:16.792Z,3.93
2018-03-29T11:14:44.620Z,4.13
2018-03-29T11:17:12.230Z,4.80
2018-03-29T11:19:39.901Z,4.70
2018-03-29T11:22:07.516Z,4.20
2018-03-29T11:24:35.104Z,3.90
2018-03-29T11:27:02.712Z,4.43
2018-03-29T11:29:30.323Z,4.20
2018-03-29T11:31:57.964Z,4.43
2018-03-29T11:34:25.646Z,4.33
2018-03-29T11:36:53.281Z,4.70
2018-03-29T11:39:20.896Z,4.27
2018-03-29T11:41:48.476Z,4.27
2018-03-29T11:44:16.378Z,4.27
2018-03-29T11:46:44.149Z,4.00
2018-03-29T11:49:11.889Z,3.80
2018-03-29T11:51:39.480Z,3.63
2018-03-29T11:54:07.074Z,4.00
2018-03-29T11:56:34.694Z,4.50
2018-03-29T11:59:02.304Z,4.70
2018-03-29T12:01:29.933Z,3.73
2018-03-29T12:03:57.524Z,3.23
2018-03-29T12:06:25.416Z,4.27
2018-03-29T12:08:52.997Z,3.70
2018-03-29T12:11:20.587Z,3.60
2018-03-29T12:13:48.199Z,3.63
2018-03-29T12:16:16.047Z,3.70
2018-03-29T12:18:43.955Z,4.23
2018-03-29T12:21:11.554Z,3.53
2018-03-29T12:23:39.188Z,4.50
2018-03-29T12:26:06.788Z,3.70
2018-03-29T12:28:34.425Z,3.20
2018-03-29T12:31:02.666Z,4.30
2018-03-29T12:33:30.444Z,4.80
2018-03-29T12:35:58.051Z,4.60
2018-03-29T12:38:25.868Z,4.20
2018-03-29T12:40:53.501Z,3.53
2018-03-29T12:43:21.089Z,4.07
2018-03-29T12:45:48.982Z,3.80
2018-03-29T12:48:17.055Z,4.10
2018-03-29T12:50:44.678Z,4.20
2018-03-29T12:53:12.307Z,4.33
2018-03-29T12:55:42.721Z,4.53
2018-03-29T12:58:11.234Z,3.90
2018-03-29T13:00:38.825Z,4.23
2018-03-29T13:03:06.779Z,4.80
2018-03-29T13:05:34.377Z,4.50
2018-03-29T13:08:01.970Z,4.63
2018-03-29T13:10:29.584Z,4.27
2018-03-29T13:12:57.227Z,4.33
2018-03-29T13:15:25.208Z,4.20
2018-03-29T13:17:52.801Z,4.10
2018-03-29T13:20:20.431Z,4.10
2018-03-29T13:22:48.016Z,3.97
2018-03-29T13:25:15.623Z,3.60
2018-03-29T13:27:43.243Z,4.33
2018-03-29T13:30:10.924Z,3.73
2018-03-29T13:32:38.629Z,4.37
2018-03-29T13:35:06.218Z,3.93
2018-03-29T13:37:33.891Z,4.30
2018-03-29T13:40:01.519Z,3.70
2018-03-29T13:42:29.191Z,4.30
2018-03-29T13:44:56.808Z,3.80
2018-03-29T13:47:24.469Z,4.20
2018-03-29T13:49:52.099Z,4.20
2018-03-29T13:52:19.688Z,4.77
2018-03-29T13:54:47.271Z,3.63
2018-03-29T13:57:15.272Z,3.47
2018-03-29T13:59:42.884Z,3.60
2018-03-29T14:02:10.499Z,4.00
2018-03-29T14:04:38.096Z,4.60
2018-03-29T14:07:05.742Z,3.10
2018-03-29T14:09:33.334Z,3.60
2018-03-29T14:12:01.287Z,4.07
2018-03-29T14:14:28.911Z,4.13
2018-03-29T14:16:56.504Z,3.77
2018-03-29T14:19:24.120Z,3.10
2018-03-29T14:21:51.711Z,3.90
2018-03-29T14:24:19.331Z,3.67
2018-03-29T14:26:46.920Z,3.47
2018-03-29T14:29:14.509Z,4.40
2018-03-29T14:31:42.116Z,4.20
2018-03-29T14:34:09.703Z,4.37
2018-03-29T14:36:37.311Z,3.73
2018-03-29T14:39:04.928Z,4.43
2018-03-29T14:41:32.937Z,3.97
2018-03-29T14:44:02.721Z,3.60
2018-03-29T14:46:30.348Z,3.70
2018-03-29T14:48:58.111Z,3.47
2018-03-29T14:51:25.709Z,3.90
2018-03-29T14:53:53.294Z,4.10
2018-03-29T14:56:20.905Z,3.37
2018-03-29T14:58:48.500Z,4.10
2018-03-29T15:01:16.422Z,3.10
2018-03-29T15:03:44.011Z,4.30
2018-03-29T15:06:11.610Z,3.00
2018-03-29T15:08:39.225Z,3.37
2018-03-29T15:11:06.816Z,4.13
2018-03-29T15:13:34.481Z,3.57
2018-03-29T15:16:02.042Z,3.57
2018-03-29T15:18:29.857Z,3.10
2018-03-29T15:20:57.452Z,3.23
2018-03-29T15:23:25.055Z,3.30
2018-03-29T15:25:52.659Z,2.90
2018-03-29T15:28:20.251Z,3.20
2018-03-29T15:30:47.857Z,2.67
2018-03-29T15:33:15.454Z,3.20
2018-03-29T15:35:43.109Z,3.23
2018-03-29T15:38:10.698Z,2.03
2018-03-29T15:40:38.414Z,2.33
2018-03-29T15:43:06.036Z,4.27
2018-03-29T15:45:33.623Z,3.20
2018-03-29T15:48:01.229Z,3.07
2018-03-29T15:50:28.816Z,3.40
2018-03-29T15:52:56.460Z,2.70
2018-03-29T15:55:24.055Z,2.30
2018-03-29T15:57:51.642Z,2.60
2018-03-29T16:00:19.251Z,2.73
2018-03-29T16:02:46.856Z,2.40
2018-03-29T16:05:14.471Z,2.87
2018-03-29T16:07:42.064Z,2.63
2018-03-29T16:10:09.747Z,2.30
2018-03-29T16:12:37.376Z,2.13
2018-03-29T16:15:04.972Z,2.00
2018-03-29T16:17:32.583Z,2.07
2018-03-29T16:20:00.170Z,2.07
2018-03-29T16:22:30.552Z,2.80
2018-03-29T16:24:58.164Z,2.37
2018-03-29T16:27:26.054Z,3.20
2018-03-29T16:29:53.662Z,2.47
2018-03-29T16:32:31.003Z,3.37
2018-03-29T16:34:59.421Z,2.83
2018-03-29T16:37:27.247Z,3.20
2018-03-29T16:39:54.886Z,2.40
2018-03-29T16:42:22.487Z,2.87
2018-03-29T16:44:50.118Z,2.60
2018-03-29T16:47:18.700Z,3.27
2018-03-29T16:49:46.337Z,2.93
2018-03-29T16:52:14.032Z,2.40
2018-03-29T16:54:41.795Z,3.10
2018-03-29T16:57:09.398Z,4.13
2018-03-29T16:59:36.987Z,2.33
2018-03-29T17:02:04.659Z,2.70
2018-03-29T17:04:32.261Z,2.93
2018-03-29T17:06:59.883Z,3.50
2018-03-29T17:09:27.476Z,3.07
2018-03-29T17:11:55.629Z,3.27
2018-03-29T17:14:23.331Z,3.20
2018-03-29T17:16:50.929Z,3.60
2018-03-29T17:19:18.637Z,3.03
2018-03-29T17:21:46.245Z,2.90
2018-03-29T17:24:13.877Z,3.70
2018-03-29T17:26:41.472Z,3.40
2018-03-29T17:29:09.597Z,3.23
2018-03-29T17:31:37.209Z,3.43
2018-03-29T17:34:04.800Z,3.20
2018-03-29T17:36:32.428Z,4.00
2018-03-29T17:39:00.016Z,3.67
2018-03-29T17:41:27.630Z,3.40
2018-03-29T17:43:55.271Z,3.90
2018-03-29T17:46:23.336Z,3.10
2018-03-29T17:48:51.103Z,3.00
2018-03-29T17:51:18.870Z,3.23
2018-03-29T17:53:46.501Z,2.73
2018-03-29T17:56:14.375Z,3.50
2018-03-29T17:58:41.992Z,3.27
2018-03-29T18:01:09.584Z,3.60
2018-03-29T18:03:37.376Z,3.43
2018-03-29T18:06:04.969Z,3.30
2018-03-29T18:08:32.552Z,3.87
2018-03-29T18:11:01.806Z,3.23
2018-03-29T18:13:29.403Z,2.77
2018-03-29T18:15:57.028Z,2.70
2018-03-29T18:18:24.624Z,3.50
2018-03-29T18:20:52.381Z,3.33
2018-03-29T18:23:19.980Z,3.17
2018-03-29T18:25:47.587Z,4.80
2018-03-29T18:28:15.208Z,3.50
2018-03-29T18:30:42.796Z,3.30
2018-03-29T18:33:10.417Z,3.60
2018-03-29T18:35:38.017Z,3.70
2018-03-29T18:38:05.661Z,3.83
2018-03-29T18:40:33.259Z,3.20
2018-03-29T18:43:00.902Z,3.03
2018-03-29T18:45:28.497Z,3.20
2018-03-29T18:47:56.088Z,3.37
2018-03-29T18:50:23.705Z,3.23
2018-03-29T18:52:51.296Z,3.63
2018-03-29T18:55:18.904Z,3.63
2018-03-29T18:57:46.491Z,3.17
2018-03-29T19:00:14.329Z,3.07
2018-03-29T19:02:41.920Z,2.80
2018-03-29T19:05:09.508Z,3.00
2018-03-29T19:07:37.112Z,3.00
2018-03-29T19:10:04.719Z,3.47
2018-03-29T19:12:32.372Z,3.07
2018-03-29T19:14:59.955Z,2.83
2018-03-29T19:17:27.752Z,3.53
2018-03-29T19:19:55.391Z,3.27
2018-03-29T19:22:22.991Z,3.03
2018-03-29T19:24:50.603Z,4.30
2018-03-29T19:27:18.191Z,4.40
2018-03-29T19:29:45.805Z,5.70
2018-03-29T19:32:13.422Z,6.43
2018-03-29T19:34:41.095Z,4.80
2018-03-29T19:37:08.677Z,3.50
2018-03-29T19:39:36.403Z,3.70
2018-03-29T19:42:03.993Z,3.50
2018-03-29T19:44:31.580Z,3.60
2018-03-29T19:46:59.202Z,5.00
2018-03-29T19:49:26.783Z,4.10
2018-03-29T19:51:54.837Z,4.83
2018-03-29T19:54:22.428Z,4.73
2018-03-29T19:56:50.024Z,5.20
2018-03-29T19:59:17.629Z,5.37
2018-03-29T20:01:45.214Z,3.67
2018-03-29T20:04:12.876Z,5.20
2018-03-29T20:06:40.473Z,5.00
2018-03-29T20:09:08.260Z,5.03
2018-03-29T20:11:35.845Z,4.40
2018-03-29T20:14:03.467Z,4.00
2018-03-29T20:16:31.081Z,3.83
2018-03-29T20:18:58.686Z,3.50
2018-03-29T20:21:26.300Z,3.83
2018-03-29T20:23:53.881Z,3.40
2018-03-29T20:26:21.489Z,3.30
2018-03-29T20:28:49.094Z,2.97
2018-03-29T20:31:16.803Z,3.10
2018-03-29T20:33:44.404Z,2.80
2018-03-29T20:36:11.993Z,2.73
2018-03-29T20:38:39.594Z,2.57
2018-03-29T20:41:07.189Z,2.47
2018-03-29T20:43:34.921Z,2.50
2018-03-29T20:46:02.504Z,2.23
2018-03-29T20:48:30.098Z,2.53
2018-03-29T20:50:57.703Z,2.73
2018-03-29T20:53:25.331Z,2.70
2018-03-29T20:55:52.919Z,3.70
2018-03-29T20:58:20.504Z,3.70
2018-03-29T21:00:48.243Z,3.67
2018-03-29T21:03:15.872Z,2.80
2018-03-29T21:05:43.464Z,3.07
2018-03-29T21:08:11.084Z,2.83
2018-03-29T21:10:38.682Z,3.77
2018-03-29T21:13:06.303Z,2.70
2018-03-29T21:15:33.893Z,3.47
2018-03-29T21:18:01.628Z,3.33
2018-03-29T21:20:29.323Z,3.60
2018-03-29T21:22:56.914Z,2.87
2018-03-29T21:25:24.525Z,3.97
2018-03-29T21:27:52.111Z,3.23
2018-03-29T21:30:19.720Z,3.10
2018-03-29T21:32:47.307Z,3.83
2018-03-29T21:35:14.944Z,2.17
2018-03-29T21:37:42.648Z,2.30
2018-03-29T21:40:10.252Z,2.60
2018-03-29T21:42:37.876Z,2.60
2018-03-29T21:45:05.495Z,2.60
2018-03-29T21:47:33.210Z,2.83
2018-03-29T21:50:00.785Z,2.50
2018-03-29T21:52:28.449Z,2.90
2018-03-29T21:54:56.122Z,3.10
2018-03-29T21:57:23.709Z,3.10
2018-03-29T21:59:51.303Z,2.83
2018-03-29T22:02:18.918Z,3.20
2018-03-29T22:04:46.523Z,3.37
2018-03-29T22:07:14.140Z,2.43
2018-03-29T22:09:41.733Z,2.87
2018-03-29T22:12:09.541Z,2.67
2018-03-29T22:14:37.136Z,2.50
2018-03-29T22:17:04.740Z,2.70
2018-03-29T22:19:32.390Z,2.90
2018-03-29T22:21:59.965Z,2.90
2018-03-29T22:24:27.577Z,2.40
2018-03-29T22:26:55.160Z,2.40
2018-03-29T22:29:22.969Z,3.03
2018-03-29T22:31:50.555Z,3.00
2018-03-29T22:34:18.147Z,2.80
2018-03-29T22:36:45.764Z,2.17
2018-03-29T22:39:13.423Z,3.00
2018-03-29T22:41:41.032Z,3.50
2018-03-29T22:44:08.615Z,3.13
2018-03-29T22:46:36.224Z,3.30
2018-03-29T22:49:03.808Z,3.30
2018-03-29T22:51:31.831Z,2.70
2018-03-29T22:53:59.421Z,2.00
2018-03-29T22:56:27.018Z,3.13
2018-03-29T22:58:54.637Z,3.27
2018-03-29T23:01:22.226Z,2.93
2018-03-29T23:03:49.836Z,2.53
2018-03-29T23:06:17.421Z,3.10
2018-03-29T23:08:45.023Z,3.17
2018-03-29T23:11:12.614Z,3.13
2018-03-29T23:13:41.508Z,2.40
2018-03-29T23:16:09.097Z,3.17
2018-03-29T23:18:36.680Z,3.10
2018-03-29T23:21:04.346Z,2.90
2018-03-29T23:23:31.921Z,3.20
2018-03-29T23:25:59.526Z,3.23
2018-03-29T23:28:27.112Z,3.00
2018-03-29T23:30:54.716Z,2.83
2018-03-29T23:33:22.300Z,2.90
2018-03-29T23:35:49.912Z,2.73
2018-03-29T23:38:17.506Z,3.17
2018-03-29T23:40:46.141Z,2.73
2018-03-29T23:43:13.728Z,2.60
2018-03-29T23:45:41.314Z,2.53
2018-03-29T23:48:09.012Z,2.23
2018-03-29T23:50:36.593Z,3.07
2018-03-29T23:53:04.203Z,3.10
2018-03-29T23:55:31.793Z,3.33
2018-03-29T23:58:11.217Z,2.93
